Time;durP1;ratioP1;P1;durP2;ratioP2;P2;SDS_P1;SDS_P2;PMS_P1;PMS_P2;Temp;Humidity;BMP_temperature;BMP_pressure;BME280_temperature;BME280_humidity;BME280_pressure;Samples;Min_cycle;Max_cycle;Signal;HPM_P1;HPM_P2
2023/11/05 00:00:48;;;;;;;1.70;1.63;;;11.20;99.90;;;;;;5109035;28;20164;-77
2023/11/05 00:03:14;;;;;;;0.68;0.68;;;11.20;99.90;;;;;;5110100;28;20211;-90
2023/11/05 00:05:40;;;;;;;0.30;0.20;;;11.20;99.90;;;;;;5107360;28;20168;-87
2023/11/05 00:08:06;;;;;;;0.30;0.20;;;11.20;99.90;;;;;;5109183;28;20867;-88
2023/11/05 00:10:31;;;;;;;0.30;0.20;;;11.20;99.90;;;;;;5107198;28;20462;-87
2023/11/05 00:12:57;;;;;;;0.30;0.20;;;11.30;99.90;;;;;;5109013;28;20756;-89
2023/11/05 00:15:23;;;;;;;0.40;0.40;;;11.20;99.90;;;;;;5111052;28;20211;-76
2023/11/05 00:17:48;;;;;;;0.30;0.20;;;11.20;99.90;;;;;;5108870;28;20452;-89
2023/11/05 00:20:15;;;;;;;0.30;0.20;;;11.20;99.90;;;;;;5107488;28;20176;-86
2023/11/05 00:22:42;;;;;;;0.30;0.20;;;11.30;99.90;;;;;;5108704;28;20176;-77
2023/11/05 00:25:09;;;;;;;0.30;0.20;;;11.30;99.90;;;;;;5108981;27;20171;-88
2023/11/05 00:27:36;;;;;;;0.30;0.20;;;11.30;99.90;;;;;;5108679;28;20524;-88
2023/11/05 00:30:03;;;;;;;0.40;0.20;;;11.30;99.90;;;;;;5108163;28;20196;-88
2023/11/05 00:32:29;;;;;;;0.30;0.20;;;11.30;99.90;;;;;;5108622;28;20632;-88
2023/11/05 00:34:54;;;;;;;0.30;0.20;;;11.30;99.90;;;;;;5106015;28;20211;-76
2023/11/05 00:37:20;;;;;;;0.30;0.20;;;11.30;99.90;;;;;;5108535;28;20585;-89
2023/11/05 00:39:45;;;;;;;0.30;0.27;;;11.30;99.90;;;;;;5108711;28;20199;-87
2023/11/05 00:42:11;;;;;;;0.30;0.20;;;11.30;99.90;;;;;;5108903;28;20217;-87
2023/11/05 00:44:37;;;;;;;0.30;0.20;;;11.30;99.90;;;;;;5106639;28;20268;-88
2023/11/05 00:47:03;;;;;;;0.30;0.20;;;11.30;99.90;;;;;;5107231;28;20214;-87
2023/11/05 00:49:28;;;;;;;0.30;0.30;;;11.30;99.90;;;;;;5108173;28;20286;-88
2023/11/05 00:51:54;;;;;;;0.30;0.20;;;11.40;99.90;;;;;;5108364;28;20510;-79
2023/11/05 00:54:19;;;;;;;0.30;0.20;;;11.40;99.90;;;;;;5108726;28;20210;-88
2023/11/05 00:56:45;;;;;;;0.30;0.20;;;11.40;99.90;;;;;;5107901;28;20296;-77
2023/11/05 00:59:11;;;;;;;0.30;0.20;;;11.40;99.90;;;;;;5106603;28;20199;-87
2023/11/05 01:01:36;;;;;;;1.23;1.23;;;11.50;99.90;;;;;;5109259;28;20958;-79
2023/11/05 01:04:02;;;;;;;0.30;0.20;;;11.40;99.90;;;;;;5110422;28;20200;-76
2023/11/05 01:06:28;;;;;;;0.30;0.20;;;11.50;99.90;;;;;;5107055;28;20179;-86
2023/11/05 01:08:53;;;;;;;5.03;4.63;;;11.50;99.90;;;;;;5105512;28;20200;-88
2023/11/05 01:11:20;;;;;;;2.93;2.77;;;11.50;99.90;;;;;;5107587;27;20189;-80
2023/11/05 01:13:46;;;;;;;0.30;0.20;;;11.60;99.90;;;;;;5107296;28;20331;-88
2023/11/05 01:16:12;;;;;;;0.30;0.20;;;11.60;99.90;;;;;;5107662;28;20279;-86
2023/11/05 01:18:37;;;;;;;0.30;0.20;;;11.70;99.90;;;;;;5107841;28;20219;-88
2023/11/05 01:21:03;;;;;;;0.30;0.20;;;11.80;99.90;;;;;;5107930;28;20175;-76
2023/11/05 01:23:29;;;;;;;0.30;0.20;;;11.80;99.90;;;;;;5106324;28;20295;-76
2023/11/05 01:25:55;;;;;;;0.30;0.20;;;11.80;99.90;;;;;;5107391;28;20250;-76
2023/11/05 01:28:20;;;;;;;0.30;0.20;;;11.90;99.90;;;;;;5105369;28;20214;-76
2023/11/05 01:30:46;;;;;;;1.80;1.70;;;11.90;99.90;;;;;;5106931;28;20204;-77
2023/11/05 01:33:12;;;;;;;0.30;0.20;;;12.00;99.90;;;;;;5107874;28;20211;-79
2023/11/05 01:35:37;;;;;;;0.30;0.20;;;12.00;99.90;;;;;;5105788;28;20203;-77
2023/11/05 01:38:04;;;;;;;0.30;0.20;;;12.00;99.90;;;;;;5106270;28;20242;-77
2023/11/05 01:40:30;;;;;;;0.30;0.20;;;12.00;99.90;;;;;;5108279;28;20187;-77
2023/11/05 01:42:57;;;;;;;0.30;0.20;;;12.10;99.90;;;;;;5107775;28;20184;-81
2023/11/05 01:45:23;;;;;;;0.30;0.30;;;12.10;99.90;;;;;;5106964;28;20861;-77
2023/11/05 01:47:50;;;;;;;0.30;0.20;;;12.10;99.90;;;;;;5105485;28;20517;-87
2023/11/05 01:50:16;;;;;;;0.30;0.20;;;12.20;99.90;;;;;;5105698;28;20420;-88
2023/11/05 01:52:43;;;;;;;0.57;0.57;;;12.20;99.90;;;;;;5105871;28;20432;-88
2023/11/05 01:55:09;;;;;;;0.30;0.20;;;12.20;99.90;;;;;;5106880;28;20459;-87
2023/11/05 01:57:35;;;;;;;0.63;0.63;;;12.20;99.90;;;;;;5107589;28;20216;-87
2023/11/05 02:00:01;;;;;;;0.30;0.20;;;12.20;99.90;;;;;;5107094;28;20423;-76
2023/11/05 02:02:28;;;;;;;0.40;0.30;;;12.30;99.90;;;;;;5107296;28;20180;-77
2023/11/05 02:04:54;;;;;;;0.30;0.20;;;12.30;99.90;;;;;;5106532;28;20945;-77
2023/11/05 02:07:19;;;;;;;0.30;0.20;;;12.30;99.90;;;;;;5106047;28;20262;-77
2023/11/05 02:09:45;;;;;;;0.30;0.20;;;12.30;99.90;;;;;;5104154;28;20879;-88
2023/11/05 02:12:11;;;;;;;0.30;0.20;;;12.30;99.90;;;;;;5107154;28;20199;-83
2023/11/05 02:14:37;;;;;;;0.30;0.20;;;12.30;99.90;;;;;;5106232;28;20600;-86
2023/11/05 02:17:02;;;;;;;0.30;0.20;;;12.30;99.90;;;;;;5107534;28;20416;-78
2023/11/05 02:19:28;;;;;;;0.30;0.20;;;12.30;99.90;;;;;;5107062;28;20196;-88
2023/11/05 02:22:02;;;;;;;0.40;0.30;;;12.30;99.90;;;;;;5105691;28;20187;-82
2023/11/05 02:24:28;;;;;;;0.30;0.20;;;12.20;99.90;;;;;;5106669;28;20195;-88
2023/11/05 02:26:56;;;;;;;1.93;1.83;;;12.20;99.90;;;;;;5106748;28;20245;-76
2023/11/05 02:29:21;;;;;;;0.30;0.20;;;12.20;99.90;;;;;;5105606;28;20196;-87
2023/11/05 02:31:47;;;;;;;0.30;0.30;;;12.20;99.90;;;;;;5106952;28;20896;-76
2023/11/05 02:34:13;;;;;;;0.80;0.80;;;12.20;99.90;;;;;;5104796;28;20429;-76
2023/11/05 02:36:38;;;;;;;0.30;0.20;;;12.10;99.90;;;;;;5104932;28;20514;-76
2023/11/05 02:39:04;;;;;;;0.30;0.20;;;12.10;99.90;;;;;;5106177;28;20200;-87
2023/11/05 02:41:30;;;;;;;0.93;0.93;;;12.10;99.90;;;;;;5106277;28;20178;-86
2023/11/05 02:43:56;;;;;;;0.30;0.20;;;12.10;99.90;;;;;;5106277;28;20195;-89
2023/11/05 02:46:21;;;;;;;0.30;0.20;;;12.10;99.90;;;;;;5106350;28;20404;-85
2023/11/05 02:48:47;;;;;;;0.33;0.30;;;12.10;99.90;;;;;;5110695;28;20241;-87
2023/11/05 02:51:13;;;;;;;0.30;0.20;;;12.00;99.90;;;;;;5116684;28;20412;-81
2023/11/05 02:53:39;;;;;;;0.30;0.20;;;12.00;99.90;;;;;;5110075;28;20211;-76
2023/11/05 02:56:05;;;;;;;0.30;0.20;;;12.00;99.90;;;;;;5108933;28;20246;-87
2023/11/05 02:58:31;;;;;;;0.30;0.20;;;12.10;99.90;;;;;;5110667;28;20454;-77
2023/11/05 03:00:57;;;;;;;0.30;0.20;;;12.10;99.90;;;;;;5108797;28;20176;-77
2023/11/05 03:03:24;;;;;;;0.30;0.20;;;12.10;99.90;;;;;;5108896;28;20218;-88
2023/11/05 03:05:49;;;;;;;0.30;0.20;;;12.20;99.90;;;;;;5109751;28;20222;-77
2023/11/05 03:08:15;;;;;;;0.30;0.20;;;12.30;99.90;;;;;;5108621;28;20207;-77
2023/11/05 03:10:40;;;;;;;0.30;0.20;;;12.30;99.90;;;;;;5108850;28;20196;-87
2023/11/05 03:13:06;;;;;;;0.30;0.20;;;12.40;99.90;;;;;;5108576;28;20593;-89
2023/11/05 03:15:32;;;;;;;0.40;0.40;;;12.40;99.90;;;;;;5109432;28;20246;-81
2023/11/05 03:17:58;;;;;;;1.20;1.13;;;12.40;99.90;;;;;;5108279;28;20188;-89
2023/11/05 03:20:24;;;;;;;0.30;0.20;;;12.40;99.90;;;;;;5108222;28;20548;-86
2023/11/05 03:22:49;;;;;;;0.40;0.20;;;12.40;99.90;;;;;;5108522;28;20454;-78
2023/11/05 03:25:15;;;;;;;0.30;0.20;;;12.30;99.90;;;;;;5109666;28;20172;-78
2023/11/05 03:27:40;;;;;;;0.30;0.20;;;12.30;99.90;;;;;;5110936;28;20654;-89
2023/11/05 03:30:07;;;;;;;0.30;0.20;;;12.30;99.90;;;;;;5108356;28;20184;-77
2023/11/05 03:32:33;;;;;;;0.53;0.50;;;12.30;99.90;;;;;;5112743;28;20179;-87
2023/11/05 03:34:59;;;;;;;3.07;2.83;;;12.20;99.90;;;;;;5109890;28;20508;-76
2023/11/05 03:37:25;;;;;;;0.30;0.20;;;12.20;99.90;;;;;;5109905;28;20180;-88
2023/11/05 03:39:50;;;;;;;0.30;0.20;;;12.20;99.90;;;;;;5108761;28;20679;-87
2023/11/05 03:42:17;;;;;;;0.30;0.20;;;12.20;99.90;;;;;;5109641;28;20400;-79
2023/11/05 03:44:42;;;;;;;0.30;0.20;;;12.20;99.90;;;;;;5109145;28;20228;-76
2023/11/05 03:47:08;;;;;;;0.30;0.20;;;12.10;99.90;;;;;;5109626;28;20908;-78
2023/11/05 03:49:34;;;;;;;0.30;0.20;;;12.10;99.90;;;;;;5109260;28;20203;-89
2023/11/05 03:52:00;;;;;;;0.43;0.43;;;12.10;99.90;;;;;;5109526;28;20179;-77
2023/11/05 03:54:27;;;;;;;0.30;0.20;;;12.10;99.90;;;;;;5107100;28;20223;-76
2023/11/05 03:56:53;;;;;;;1.73;1.63;;;12.00;99.90;;;;;;5107816;28;20414;-85
2023/11/05 03:59:19;;;;;;;0.30;0.20;;;12.00;99.90;;;;;;5106936;28;20204;-76
2023/11/05 04:01:51;;;;;;;0.30;0.20;;;12.00;99.90;;;;;;5108774;28;20421;-87
2023/11/05 04:04:17;;;;;;;0.30;0.20;;;12.10;99.90;;;;;;5107669;28;20199;-76
2023/11/05 04:06:43;;;;;;;0.30;0.20;;;12.10;99.90;;;;;;5108923;28;20419;-84
2023/11/05 04:09:09;;;;;;;0.30;0.30;;;12.20;99.90;;;;;;5107447;28;20215;-76
2023/11/05 04:11:35;;;;;;;0.30;0.20;;;12.20;99.90;;;;;;5106648;28;20420;-86
2023/11/05 04:14:01;;;;;;;0.30;0.20;;;12.20;99.90;;;;;;5110983;28;20239;-85
2023/11/05 04:16:27;;;;;;;0.30;0.20;;;12.20;99.90;;;;;;5107658;28;20416;-79
2023/11/05 04:18:53;;;;;;;0.30;0.20;;;12.20;99.90;;;;;;5108059;28;20323;-88
2023/11/05 04:21:19;;;;;;;0.30;0.20;;;12.20;99.90;;;;;;5109929;28;20194;-81
2023/11/05 04:23:45;;;;;;;1.60;0.93;;;12.20;99.90;;;;;;5107020;28;20203;-77
2023/11/05 04:26:13;;;;;;;0.40;0.30;;;12.20;99.90;;;;;;5107167;28;20501;-87
2023/11/05 04:28:40;;;;;;;0.30;0.20;;;12.20;99.90;;;;;;5108501;28;20444;-76
2023/11/05 04:31:06;;;;;;;0.30;0.20;;;12.30;99.90;;;;;;5106752;28;20421;-77
2023/11/05 04:33:32;;;;;;;0.40;0.40;;;12.30;99.90;;;;;;5107097;28;20235;-77
2023/11/05 04:35:58;;;;;;;0.30;0.20;;;12.30;99.90;;;;;;5108160;28;20448;-87
2023/11/05 04:38:24;;;;;;;0.30;0.20;;;12.30;99.90;;;;;;5107938;28;20470;-88
2023/11/05 04:40:50;;;;;;;0.30;0.20;;;12.30;99.90;;;;;;5107990;28;20534;-77
2023/11/05 04:43:16;;;;;;;0.33;0.30;;;12.40;99.90;;;;;;5108318;28;20440;-86
2023/11/05 04:45:42;;;;;;;0.30;0.20;;;12.40;99.90;;;;;;5108441;28;20425;-77
2023/11/05 04:48:07;;;;;;;0.30;0.20;;;12.40;99.90;;;;;;5111011;27;20245;-87
2023/11/05 04:50:33;;;;;;;0.30;0.20;;;12.40;99.90;;;;;;5109642;28;20396;-76
2023/11/05 04:52:59;;;;;;;0.30;0.27;;;12.40;99.90;;;;;;5108181;28;20251;-88
2023/11/05 04:55:25;;;;;;;0.30;0.20;;;12.40;99.90;;;;;;5107640;28;20459;-79
2023/11/05 04:57:50;;;;;;;0.30;0.20;;;12.40;99.90;;;;;;5106486;28;20240;-88
2023/11/05 05:00:16;;;;;;;0.30;0.20;;;12.30;99.90;;;;;;5107383;27;20255;-79
2023/11/05 05:02:44;;;;;;;0.30;0.20;;;12.30;99.90;;;;;;5106435;28;20195;-88
2023/11/05 05:05:10;;;;;;;0.30;0.20;;;12.30;99.90;;;;;;5107205;28;20168;-77
2023/11/05 05:07:36;;;;;;;0.30;0.20;;;12.30;99.90;;;;;;5106368;28;20602;-87
2023/11/05 05:10:02;;;;;;;0.30;0.20;;;12.30;99.90;;;;;;5106985;28;20192;-88
2023/11/05 05:12:28;;;;;;;2.20;2.10;;;12.30;99.90;;;;;;5106073;28;20429;-77
2023/11/05 05:14:54;;;;;;;0.30;0.20;;;12.30;99.90;;;;;;5106314;28;20551;-87
2023/11/05 05:17:20;;;;;;;0.30;0.20;;;12.30;99.90;;;;;;5107099;28;20331;-87
2023/11/05 05:19:46;;;;;;;0.30;0.20;;;12.30;99.90;;;;;;5106128;28;20325;-77
2023/11/05 05:22:12;;;;;;;0.30;0.20;;;12.30;99.90;;;;;;5106806;28;20172;-87
2023/11/05 05:24:38;;;;;;;0.40;0.20;;;12.30;99.90;;;;;;5111379;28;20239;-76
2023/11/05 05:27:04;;;;;;;0.30;0.20;;;12.30;99.90;;;;;;5107500;28;20646;-76
2023/11/05 05:29:30;;;;;;;0.30;0.20;;;12.30;99.90;;;;;;5105965;28;20560;-87
2023/11/05 05:31:55;;;;;;;0.30;0.30;;;12.30;99.90;;;;;;5107211;28;20221;-76
2023/11/05 05:34:21;;;;;;;0.30;0.30;;;12.20;99.90;;;;;;5105410;28;20195;-77
2023/11/05 05:36:47;;;;;;;1.23;1.13;;;12.20;99.90;;;;;;5107170;28;20196;-77
2023/11/05 05:39:12;;;;;;;1.90;1.43;;;12.30;99.90;;;;;;5105226;28;20453;-76
2023/11/05 05:41:38;;;;;;;0.30;0.20;;;12.30;99.90;;;;;;5106027;28;20669;-86
2023/11/05 05:44:05;;;;;;;0.30;0.20;;;12.30;99.90;;;;;;5107818;28;20199;-76
2023/11/05 05:46:30;;;;;;;0.45;0.45;;;12.30;99.90;;;;;;5105181;28;20229;-76
2023/11/05 05:48:56;;;;;;;0.30;0.20;;;12.30;99.90;;;;;;5105873;28;20204;-87
2023/11/05 05:51:23;;;;;;;0.30;0.20;;;12.20;99.90;;;;;;5105727;28;20404;-76
2023/11/05 05:53:49;;;;;;;0.30;0.20;;;12.20;99.90;;;;;;5106991;28;20245;-89
2023/11/05 05:56:15;;;;;;;0.30;0.20;;;12.20;99.90;;;;;;5106846;28;20600;-77
2023/11/05 05:58:44;;;;;;;0.30;0.20;;;12.10;99.90;;;;;;5107274;28;20200;-76
2023/11/05 06:01:10;;;;;;;0.30;0.20;;;12.10;99.90;;;;;;5108237;28;20203;-76
2023/11/05 06:03:36;;;;;;;0.30;0.30;;;12.10;99.90;;;;;;5107143;28;20443;-76
2023/11/05 06:06:02;;;;;;;0.77;0.73;;;12.10;99.90;;;;;;5107348;28;20439;-76
2023/11/05 06:08:28;;;;;;;0.30;0.20;;;12.10;99.90;;;;;;5106714;28;20282;-88
2023/11/05 06:10:54;;;;;;;0.30;0.20;;;12.00;99.90;;;;;;5106123;28;20974;-77
2023/11/05 06:13:20;;;;;;;0.30;0.20;;;12.00;99.90;;;;;;5105190;28;20475;-77
2023/11/05 06:15:46;;;;;;;0.30;0.20;;;12.00;99.90;;;;;;5105521;28;20230;-78
2023/11/05 06:18:13;;;;;;;0.30;0.20;;;12.00;99.90;;;;;;5104932;28;20814;-76
2023/11/05 06:20:39;;;;;;;0.30;0.20;;;12.00;99.90;;;;;;5106625;28;20487;-76
2023/11/05 06:23:05;;;;;;;0.30;0.20;;;12.00;99.90;;;;;;5104560;28;21047;-76
2023/11/05 06:25:31;;;;;;;0.30;0.20;;;11.90;99.90;;;;;;5104592;28;20572;-76
2023/11/05 06:27:56;;;;;;;0.30;0.20;;;11.90;99.90;;;;;;5106745;28;20884;-88
2023/11/05 06:30:22;;;;;;;0.30;0.20;;;11.90;99.90;;;;;;5104684;28;20396;-86
2023/11/05 06:32:49;;;;;;;0.30;0.20;;;11.90;99.90;;;;;;5106873;28;20179;-77
2023/11/05 06:35:15;;;;;;;0.30;0.20;;;11.90;99.90;;;;;;5106153;28;20710;-77
2023/11/05 06:37:41;;;;;;;0.30;0.20;;;11.90;99.90;;;;;;5104992;28;20180;-76
2023/11/05 06:40:07;;;;;;;0.30;0.20;;;11.90;99.90;;;;;;5106201;28;20547;-87
2023/11/05 06:42:33;;;;;;;0.30;0.20;;;11.80;99.90;;;;;;5107038;28;20457;-87
2023/11/05 06:44:59;;;;;;;0.30;0.20;;;11.70;99.90;;;;;;5106245;28;20663;-77
2023/11/05 06:47:25;;;;;;;0.30;0.20;;;11.70;99.90;;;;;;5109605;28;20179;-77
2023/11/05 06:49:50;;;;;;;0.73;0.70;;;11.80;99.90;;;;;;5108404;28;20201;-76
2023/11/05 06:52:16;;;;;;;0.30;0.20;;;11.80;99.90;;;;;;5109734;28;20631;-79
2023/11/05 06:54:42;;;;;;;0.30;0.20;;;11.80;99.90;;;;;;5095211;28;20711;-89
2023/11/05 06:57:09;;;;;;;0.30;0.20;;;11.80;99.90;;;;;;5093566;28;20250;-78
2023/11/05 06:59:35;;;;;;;0.30;0.20;;;11.80;99.90;;;;;;5095240;28;20192;-77
2023/11/05 07:02:02;;;;;;;0.30;0.20;;;11.80;99.90;;;;;;5096358;28;20433;-87
2023/11/05 07:04:28;;;;;;;0.30;0.20;;;11.80;99.90;;;;;;5092770;28;20437;-77
2023/11/05 07:06:53;;;;;;;0.30;0.20;;;11.80;99.90;;;;;;5093265;28;20664;-84
2023/11/05 07:09:19;;;;;;;0.30;0.20;;;11.80;99.90;;;;;;5093099;28;20466;-77
2023/11/05 07:11:45;;;;;;;0.30;0.20;;;11.80;99.90;;;;;;5092491;28;20180;-79
2023/11/05 07:14:10;;;;;;;0.30;0.20;;;11.80;99.90;;;;;;5094190;28;20243;-89
2023/11/05 07:16:36;;;;;;;0.30;0.20;;;11.80;99.90;;;;;;5083846;28;20664;-81
2023/11/05 07:19:02;;;;;;;0.30;0.20;;;11.80;99.90;;;;;;5083915;28;20192;-88
2023/11/05 07:21:28;;;;;;;0.30;0.20;;;11.80;99.90;;;;;;5083963;28;20479;-77
2023/11/05 07:23:53;;;;;;;0.30;0.20;;;11.80;99.90;;;;;;5084159;28;20850;-76
2023/11/05 07:26:19;;;;;;;0.30;0.20;;;11.80;99.90;;;;;;5085257;28;20169;-77
2023/11/05 07:28:45;;;;;;;0.30;0.20;;;11.90;99.90;;;;;;5085347;28;20231;-76
2023/11/05 07:31:16;;;;;;;0.30;0.20;;;11.90;99.90;;;;;;5086079;28;20438;-77
2023/11/05 07:33:45;;;;;;;0.30;0.20;;;11.90;99.90;;;;;;5087516;28;20451;-78
2023/11/05 07:36:12;;;;;;;0.30;0.20;;;12.00;99.90;;;;;;5098005;28;20203;-77
2023/11/05 07:38:38;;;;;;;0.30;0.20;;;12.00;99.90;;;;;;5096760;28;20304;-88
2023/11/05 07:41:05;;;;;;;0.30;0.20;;;12.10;99.90;;;;;;5097267;28;20409;-86
2023/11/05 07:43:32;;;;;;;0.30;0.20;;;12.10;99.90;;;;;;5097467;28;20464;-87
2023/11/05 07:45:57;;;;;;;0.30;0.20;;;12.20;99.90;;;;;;5098305;28;20401;-77
2023/11/05 07:48:23;;;;;;;0.30;0.20;;;12.20;99.90;;;;;;5096757;28;20790;-88
2023/11/05 07:50:50;;;;;;;0.30;0.20;;;12.30;99.90;;;;;;5095511;28;20171;-87
2023/11/05 07:53:16;;;;;;;0.30;0.20;;;12.30;99.90;;;;;;5097746;28;20200;-87
2023/11/05 07:55:42;;;;;;;0.30;0.20;;;12.40;99.90;;;;;;5095868;28;20452;-86
2023/11/05 07:58:09;;;;;;;0.30;0.20;;;12.40;99.90;;;;;;5096825;28;20803;-89
2023/11/05 08:00:34;;;;;;;0.30;0.20;;;12.40;99.90;;;;;;5096741;28;20164;-88
2023/11/05 08:03:02;;;;;;;0.30;0.30;;;12.40;99.90;;;;;;5099473;28;20795;-89
2023/11/05 08:05:28;;;;;;;0.30;0.20;;;12.50;99.90;;;;;;5099565;28;20222;-76
2023/11/05 08:07:54;;;;;;;0.30;0.20;;;12.50;99.90;;;;;;5099616;28;20776;-77
2023/11/05 08:10:20;;;;;;;0.30;0.20;;;12.50;99.90;;;;;;5096021;28;20401;-78
2023/11/05 08:12:47;;;;;;;0.30;0.20;;;12.60;99.90;;;;;;5097356;28;20242;-77
2023/11/05 08:15:13;;;;;;;0.30;0.20;;;12.70;99.90;;;;;;5099578;28;20311;-87
2023/11/05 08:17:39;;;;;;;0.30;0.20;;;12.70;99.90;;;;;;5104205;28;20420;-89
2023/11/05 08:20:05;;;;;;;0.30;0.20;;;12.80;99.90;;;;;;5100099;28;20633;-88
2023/11/05 08:22:32;;;;;;;0.30;0.20;;;12.80;99.90;;;;;;5099533;28;20200;-88
2023/11/05 08:24:58;;;;;;;0.30;0.20;;;12.90;99.90;;;;;;5096931;28;20829;-77
2023/11/05 08:27:24;;;;;;;0.30;0.20;;;13.00;99.90;;;;;;5096724;28;20447;-89
2023/11/05 08:29:49;;;;;;;0.30;0.20;;;13.00;99.90;;;;;;5098313;28;20417;-78
2023/11/05 08:32:17;;;;;;;0.30;0.20;;;13.00;99.90;;;;;;5096145;28;20593;-77
2023/11/05 08:34:43;;;;;;;0.30;0.20;;;13.10;99.90;;;;;;5095588;28;20215;-77
2023/11/05 08:37:08;;;;;;;0.30;0.20;;;13.20;99.90;;;;;;5096431;28;20428;-77
2023/11/05 08:39:34;;;;;;;0.30;0.20;;;13.20;99.90;;;;;;5099251;28;20210;-78
2023/11/05 08:42:00;;;;;;;0.30;0.20;;;13.30;99.90;;;;;;5096717;28;20293;-77
2023/11/05 08:44:26;;;;;;;0.30;0.20;;;13.30;99.90;;;;;;5094429;28;20487;-77
2023/11/05 08:46:52;;;;;;;0.30;0.20;;;13.40;99.90;;;;;;5098786;28;20168;-78
2023/11/05 08:49:18;;;;;;;0.30;0.20;;;13.40;99.90;;;;;;5096862;28;20531;-77
2023/11/05 08:51:45;;;;;;;0.30;0.20;;;13.40;99.90;;;;;;5099877;28;20937;-88
2023/11/05 08:54:11;;;;;;;0.30;0.20;;;13.50;99.90;;;;;;5098453;28;20440;-77
2023/11/05 08:56:38;;;;;;;2.73;2.60;;;13.40;99.90;;;;;;5096091;28;20423;-76
2023/11/05 08:59:04;;;;;;;0.63;0.63;;;13.50;99.90;;;;;;5097505;28;20447;-77
2023/11/05 09:01:30;;;;;;;0.30;0.20;;;13.50;99.90;;;;;;5128889;27;20442;-88
2023/11/05 09:03:56;;;;;;;0.30;0.20;;;13.50;99.90;;;;;;5099454;28;20543;-80
2023/11/05 09:06:23;;;;;;;0.30;0.20;;;13.60;99.90;;;;;;5096526;28;20492;-77
2023/11/05 09:08:49;;;;;;;0.30;0.20;;;13.70;99.90;;;;;;5096740;28;20291;-78
2023/11/05 09:11:15;;;;;;;0.30;0.20;;;13.70;99.90;;;;;;5096905;28;20524;-87
2023/11/05 09:13:41;;;;;;;0.30;0.30;;;13.70;99.90;;;;;;5096493;28;20604;-87
2023/11/05 09:16:07;;;;;;;0.30;0.23;;;13.80;99.90;;;;;;5098783;28;20555;-78
2023/11/05 09:18:33;;;;;;;0.30;0.20;;;13.80;99.90;;;;;;5095735;28;20968;-78
2023/11/05 09:20:59;;;;;;;0.30;0.20;;;13.90;99.90;;;;;;5094294;28;20264;-87
2023/11/05 09:23:25;;;;;;;0.30;0.20;;;13.90;99.90;;;;;;5087140;28;20516;-77
2023/11/05 09:25:51;;;;;;;0.30;0.20;;;13.90;99.90;;;;;;5086155;28;20408;-86
2023/11/05 09:28:17;;;;;;;0.30;0.20;;;14.00;99.90;;;;;;5085131;28;20667;-88
2023/11/05 09:30:45;;;;;;;0.30;0.20;;;14.00;99.90;;;;;;5086502;28;20405;-85
2023/11/05 09:33:14;;;;;;;0.30;0.20;;;14.00;99.90;;;;;;5086591;28;20437;-88
2023/11/05 09:35:40;;;;;;;0.30;0.20;;;14.10;99.90;;;;;;5085573;28;20461;-77
2023/11/05 09:38:06;;;;;;;0.30;0.20;;;14.00;99.90;;;;;;5085746;28;20802;-86
2023/11/05 09:40:33;;;;;;;0.30;0.20;;;14.10;99.90;;;;;;5084663;28;20821;-85
2023/11/05 09:43:05;;;;;;;0.30;0.20;;;14.10;99.90;;;;;;5087077;28;20424;-76
2023/11/05 09:45:35;;;;;;;0.30;0.20;;;14.20;99.90;;;;;;5085722;28;20496;-77
2023/11/05 09:48:13;;;;;;;0.30;0.20;;;14.20;99.90;;;;;;5085215;28;20561;-87
2023/11/05 09:50:41;;;;;;;0.30;0.20;;;14.30;99.90;;;;;;5084948;28;20389;-87
2023/11/05 09:53:12;;;;;;;0.30;0.20;;;14.30;99.90;;;;;;5083853;28;20452;-88
2023/11/05 09:55:41;;;;;;;0.30;0.20;;;14.30;99.90;;;;;;5084851;28;20456;-77
2023/11/05 09:58:09;;;;;;;0.30;0.20;;;14.40;99.90;;;;;;5084576;28;20432;-77
2023/11/05 10:00:36;;;;;;;0.30;0.20;;;14.40;99.90;;;;;;5084809;28;20489;-78
2023/11/05 10:03:07;;;;;;;0.30;0.20;;;14.50;99.90;;;;;;5085169;28;20599;-88
2023/11/05 10:05:42;;;;;;;0.30;0.20;;;14.50;99.90;;;;;;5084726;28;20424;-77
2023/11/05 10:08:08;;;;;;;0.30;0.20;;;14.60;99.90;;;;;;5084912;28;20444;-88
2023/11/05 10:10:36;;;;;;;0.30;0.20;;;14.70;99.90;;;;;;5084545;28;20417;-78
2023/11/05 10:13:05;;;;;;;0.30;0.27;;;14.70;99.90;;;;;;5084710;28;20468;-87
2023/11/05 10:15:39;;;;;;;0.30;0.20;;;14.70;99.90;;;;;;5087376;28;20464;-88
2023/11/05 10:18:11;;;;;;;1.43;1.33;;;14.80;99.90;;;;;;5086349;28;20465;-79
2023/11/05 10:20:58;;;;;;;3.13;2.93;;;14.70;99.90;;;;;;5084563;28;20772;-88
2023/11/05 10:23:24;;;;;;;0.30;0.20;;;14.80;99.90;;;;;;5085685;28;20510;-77
2023/11/05 10:25:52;;;;;;;0.30;0.20;;;14.70;99.90;;;;;;5086274;28;20445;-78
2023/11/05 10:28:20;;;;;;;0.30;0.20;;;14.80;99.90;;;;;;5086270;28;20478;-78
2023/11/05 10:30:48;;;;;;;0.40;0.37;;;14.90;99.90;;;;;;5084436;28;20492;-78
2023/11/05 10:33:14;;;;;;;0.30;0.20;;;14.90;99.90;;;;;;5086400;28;20441;-88
2023/11/05 10:35:40;;;;;;;0.30;0.20;;;14.80;99.90;;;;;;5084392;28;20476;-87
2023/11/05 10:38:08;;;;;;;0.30;0.20;;;14.90;99.90;;;;;;5086000;28;20471;-77
2023/11/05 10:40:34;;;;;;;0.30;0.20;;;14.90;99.90;;;;;;5083867;28;20765;-88
2023/11/05 10:42:59;;;;;;;0.30;0.20;;;14.90;99.90;;;;;;5086190;28;20429;-78
2023/11/05 10:45:26;;;;;;;0.30;0.20;;;15.00;99.90;;;;;;5085863;28;20169;-88
2023/11/05 10:47:52;;;;;;;0.30;0.20;;;15.00;99.90;;;;;;5085576;28;20180;-88
2023/11/05 10:50:23;;;;;;;0.30;0.20;;;15.00;99.90;;;;;;5085820;28;20478;-88
2023/11/05 10:52:53;;;;;;;0.30;0.20;;;15.00;99.90;;;;;;5084601;28;20508;-88
2023/11/05 10:55:32;;;;;;;0.30;0.20;;;14.90;99.90;;;;;;5084431;28;20471;-88
2023/11/05 10:57:59;;;;;;;0.30;0.20;;;14.90;99.90;;;;;;5085980;28;20413;-77
2023/11/05 11:00:27;;;;;;;0.30;0.20;;;14.90;99.90;;;;;;5085982;28;20905;-78
2023/11/05 11:03:03;;;;;;;0.30;0.20;;;14.90;99.90;;;;;;5085253;28;20750;-89
2023/11/05 11:05:43;;;;;;;0.30;0.20;;;14.80;99.90;;;;;;5086236;28;20812;-89
2023/11/05 11:08:10;;;;;;;0.30;0.20;;;14.90;99.90;;;;;;5087518;28;20472;-89
2023/11/05 11:10:40;;;;;;;0.67;0.67;;;15.00;99.90;;;;;;5089849;28;20412;-77
2023/11/05 11:13:14;;;;;;;0.30;0.20;;;15.00;99.90;;;;;;5088435;28;20852;-77
2023/11/05 11:15:41;;;;;;;0.30;0.20;;;15.00;99.90;;;;;;5087829;28;20478;-76
2023/11/05 11:18:19;;;;;;;0.30;0.20;;;15.00;99.90;;;;;;5089876;28;20949;-78
2023/11/05 11:20:53;;;;;;;0.30;0.20;;;14.90;99.90;;;;;;5088996;28;20484;-88
2023/11/05 11:23:21;;;;;;;0.40;0.40;;;14.90;99.90;;;;;;5089746;28;20786;-88
2023/11/05 11:25:56;;;;;;;0.40;0.30;;;14.90;99.90;;;;;;5087403;28;20598;-88
2023/11/05 11:28:22;;;;;;;0.30;0.30;;;15.00;99.90;;;;;;5089453;28;20441;-77
2023/11/05 11:30:49;;;;;;;0.30;0.20;;;15.00;99.90;;;;;;5087297;28;20855;-86
2023/11/05 11:33:16;;;;;;;0.30;0.20;;;15.10;99.90;;;;;;5087876;28;20196;-87
2023/11/05 11:35:42;;;;;;;0.40;0.30;;;15.10;99.90;;;;;;5088591;28;20471;-77
2023/11/05 11:38:08;;;;;;;0.30;0.20;;;15.10;99.90;;;;;;5087824;28;20972;-87
2023/11/05 11:40:34;;;;;;;0.30;0.20;;;15.20;99.90;;;;;;5088494;28;20252;-79
2023/11/05 11:43:00;;;;;;;0.40;0.40;;;15.20;99.90;;;;;;5087592;28;20502;-86
2023/11/05 11:45:25;;;;;;;0.30;0.20;;;15.30;99.90;;;;;;5087557;28;20180;-77
2023/11/05 11:47:52;;;;;;;0.30;0.20;;;15.30;99.90;;;;;;5088643;28;20172;-77
2023/11/05 11:50:19;;;;;;;0.30;0.20;;;15.30;99.90;;;;;;5087336;28;20420;-86
2023/11/05 11:52:52;;;;;;;0.93;0.93;;;15.30;99.90;;;;;;5087202;28;20417;-77
2023/11/05 11:55:18;;;;;;;0.30;0.30;;;15.30;99.90;;;;;;5088751;28;20480;-88
2023/11/05 11:57:48;;;;;;;0.63;0.63;;;15.30;99.90;;;;;;5087131;28;20511;-88
2023/11/05 12:00:21;;;;;;;0.60;0.57;;;15.30;99.90;;;;;;5090689;28;20729;-87
2023/11/05 12:02:51;;;;;;;0.30;0.20;;;15.40;99.90;;;;;;5092934;28;20801;-86
2023/11/05 12:05:20;;;;;;;16.60;11.30;;;15.50;99.90;;;;;;5088409;28;20412;-77
2023/11/05 12:07:50;;;;;;;1.27;1.20;;;15.50;99.90;;;;;;5088856;28;20413;-86
2023/11/05 12:10:16;;;;;;;0.30;0.20;;;15.60;99.90;;;;;;5088646;28;20782;-87
2023/11/05 12:12:43;;;;;;;0.30;0.20;;;15.60;99.90;;;;;;5088644;28;20773;-77
2023/11/05 12:15:13;;;;;;;3.10;2.00;;;15.70;99.90;;;;;;5087964;28;20747;-87
2023/11/05 12:17:42;;;;;;;0.40;0.40;;;15.80;99.90;;;;;;5088450;28;20428;-77
2023/11/05 12:20:11;;;;;;;0.30;0.20;;;15.80;99.90;;;;;;5085612;28;20409;-77
2023/11/05 12:22:37;;;;;;;0.30;0.20;;;15.80;99.90;;;;;;5086553;28;20475;-77
2023/11/05 12:25:09;;;;;;;0.30;0.20;;;15.90;99.90;;;;;;5087745;28;20432;-87
2023/11/05 12:27:35;;;;;;;0.87;0.87;;;15.90;99.90;;;;;;5087525;28;20417;-89
2023/11/05 12:30:10;;;;;;;0.30;0.20;;;16.00;99.90;;;;;;5086577;28;20918;-77
2023/11/05 12:32:42;;;;;;;0.30;0.20;;;15.90;99.90;;;;;;5088309;28;20617;-88
2023/11/05 12:35:08;;;;;;;0.50;0.50;;;15.90;99.90;;;;;;5088130;28;20461;-77
2023/11/05 12:37:34;;;;;;;0.30;0.20;;;15.80;99.90;;;;;;5089738;28;20405;-76
2023/11/05 12:40:00;;;;;;;0.30;0.20;;;15.80;99.90;;;;;;5087334;28;20511;-77
2023/11/05 12:42:27;;;;;;;0.30;0.20;;;15.70;99.90;;;;;;5087809;28;20504;-77
2023/11/05 12:44:53;;;;;;;0.30;0.20;;;15.70;99.90;;;;;;5085905;28;20197;-88